Time;durP1;ratioP1;P1;durP2;ratioP2;P2;SDS_P1;SDS_P2;PMS_P1;PMS_P2;Temp;Humidity;BMP_temperature;BMP_pressure;BME280_temperature;BME280_humidity;BME280_pressure;Samples;Min_cycle;Max_cycle;Signal;HPM_P1;HPM_P2
2021/04/25 00:02:24;;;;;;;6.08;3.55;;;;;;;3.82;59.85;96928.83;1666312;85;21229;-56
2021/04/25 00:04:51;;;;;;;5.67;4.08;;;;;;;3.81;60.06;96930.17;1665142;84;21139;-56
2021/04/25 00:07:19;;;;;;;6.20;3.50;;;;;;;3.78;60.17;96922.16;1635747;86;21159;-56
2021/04/25 00:09:46;;;;;;;6.28;3.42;;;;;;;3.78;60.17;96922.16;1653992;85;21601;-56
2021/04/25 00:12:14;;;;;;;6.42;3.87;;;;;;;3.79;59.97;96922.98;1677296;84;21229;-55
2021/04/25 00:14:43;;;;;;;;;;;;;;;3.76;60.03;96915.39;1677940;84;21595;-56
2021/04/25 00:17:10;;;;;;;6.60;3.70;;;;;;;3.72;60.20;96914.68;1661147;85;20284;-56
2021/04/25 00:19:38;;;;;;;5.97;3.60;;;;;;;3.65;60.24;96907.66;1670434;84;21515;-56
2021/04/25 00:22:06;;;;;;;4.25;3.50;;;;;;;3.61;60.59;96913.79;1661625;85;21147;-56
2021/04/25 00:24:34;;;;;;;4.90;3.47;;;;;;;3.58;60.73;96916.47;1672015;84;21229;-57
2021/04/25 00:27:01;;;;;;;6.00;3.55;;;;;;;3.58;60.86;96901.53;1669780;84;21169;-56
2021/04/25 00:29:30;;;;;;;7.03;3.30;;;;;;;3.58;60.93;96903.64;1639265;85;21207;-57
2021/04/25 00:31:58;;;;;;;4.53;3.60;;;;;;;3.55;60.96;96901.18;1657437;85;21524;-57
2021/04/25 00:34:25;;;;;;;5.47;3.60;;;;;;;3.55;60.96;96901.18;1667564;85;21084;-57
2021/04/25 00:36:53;;;;;;;6.40;3.75;;;;;;;3.54;61.05;96898.70;1676775;83;21406;-55
2021/04/25 00:39:20;;;;;;;5.35;3.50;;;;;;;3.52;61.09;96887.21;1667828;84;21907;-55
2021/04/25 00:41:48;;;;;;;7.87;3.45;;;;;;;3.55;61.11;96885.78;1676364;84;21162;-55
2021/04/25 00:44:15;;;;;;;5.25;3.67;;;;;;;3.57;60.94;96885.73;1663697;84;21092;-55
2021/04/25 00:46:43;;;;;;;5.62;3.55;;;;;;;3.58;60.87;96881.00;1661894;85;21127;-55
2021/04/25 00:49:12;;;;;;;10.13;3.98;;;;;;;3.58;60.83;96883.11;1625805;86;21245;-56
2021/04/25 00:51:40;;;;;;;5.83;3.52;;;;;;;3.59;60.76;96880.94;1661742;85;21219;-56
2021/04/25 00:54:08;;;;;;;5.42;3.62;;;;;;;3.61;60.71;96881.71;1655694;84;21191;-55
2021/04/25 00:56:36;;;;;;;5.95;3.60;;;;;;;3.62;60.53;96879.55;1661263;85;21086;-55
2021/04/25 00:59:04;;;;;;;5.37;3.50;;;;;;;3.62;60.58;96874.88;1641879;86;21149;-55
2021/04/25 01:01:32;;;;;;;8.37;4.33;;;;;;;3.65;60.36;96870.88;1624033;87;23266;-55
2021/04/25 01:04:00;;;;;;;6.05;3.58;;;;;;;3.66;60.27;96868.72;1649132;85;21180;-57
2021/04/25 01:06:27;;;;;;;4.67;3.67;;;;;;;3.65;60.22;96875.58;1648313;85;21490;-55
2021/04/25 01:08:55;;;;;;;5.83;3.42;;;;;;;3.63;60.21;96870.94;1648629;85;21633;-55
2021/04/25 01:11:23;;;;;;;5.58;3.17;;;;;;;3.65;60.11;96871.73;1651318;85;21147;-55
2021/04/25 01:13:51;;;;;;;6.95;3.67;;;;;;;3.68;60.04;96871.62;1679112;85;21387;-56
2021/04/25 01:16:20;;;;;;;5.00;3.20;;;;;;;3.69;60.08;96869.42;1653569;85;21694;-55
2021/04/25 01:18:47;;;;;;;9.08;3.80;;;;;;;3.73;60.11;96865.46;1650266;85;21614;-57
2021/04/25 01:21:15;;;;;;;6.10;3.80;;;;;;;3.73;60.11;96865.46;1676143;85;21152;-55
2021/04/25 01:23:44;;;;;;;6.53;2.90;;;;;;;3.75;60.07;96858.10;1660254;85;21169;-55
2021/04/25 01:26:11;;;;;;;4.28;3.40;;;;;;;3.82;59.57;96847.97;1652237;85;22011;-55
2021/04/25 01:28:39;;;;;;;6.28;3.42;;;;;;;3.84;59.41;96841.03;1650008;85;21540;-55
2021/04/25 01:31:07;;;;;;;5.90;3.70;;;;;;;3.84;59.41;96841.03;1653700;85;21114;-55
2021/04/25 01:33:35;;;;;;;4.33;3.15;;;;;;;3.87;59.23;96846.52;1660459;85;21112;-55
2021/04/25 01:36:05;;;;;;;6.05;3.05;;;;;;;3.90;59.27;96837.84;1652485;85;21627;-55
2021/04/25 01:38:32;;;;;;;5.22;3.22;;;;;;;3.91;58.80;96828.80;1648468;85;21364;-55
2021/04/25 01:41:00;;;;;;;5.17;3.30;;;;;;;3.92;58.90;96815.53;1655808;85;21142;-54
2021/04/25 01:43:28;;;;;;;3.75;3.15;;;;;;;3.90;58.81;96818.16;1650615;85;21093;-54
2021/04/25 01:45:55;;;;;;;4.35;3.70;;;;;;;3.95;58.68;96815.41;1660919;84;21113;-54
2021/04/25 01:48:23;;;;;;;6.37;3.45;;;;;;;3.97;58.70;96810.58;1664225;84;21663;-55
2021/04/25 01:50:52;;;;;;;4.55;3.22;;;;;;;3.97;58.70;96810.58;1657238;85;21326;-54
2021/04/25 01:53:19;;;;;;;7.03;3.67;;;;;;;3.99;58.44;96806.21;1658665;85;21219;-57
2021/04/25 01:55:47;;;;;;;4.62;3.50;;;;;;;3.98;58.24;96805.84;1637141;86;21127;-55
2021/04/25 01:58:15;;;;;;;6.58;3.17;;;;;;;3.98;58.24;96805.84;1660962;85;21087;-55
2021/04/25 02:00:45;;;;;;;4.12;3.17;;;;;;;3.98;58.31;96805.84;1674014;85;21173;-54
2021/04/25 02:03:15;;;;;;;4.03;3.27;;;;;;;4.06;58.33;96804.22;1654442;85;21245;-54
2021/04/25 02:05:43;;;;;;;8.43;3.40;;;;;;;4.12;58.35;96798.84;1653718;85;21181;-55
2021/04/25 02:08:11;;;;;;;5.05;3.60;;;;;;;4.19;57.98;96801.98;1670406;84;21176;-54
2021/04/25 02:10:41;;;;;;;5.00;3.37;;;;;;;4.25;57.81;96800.45;1658322;85;21155;-55
2021/04/25 02:13:10;;;;;;;4.90;3.62;;;;;;;4.25;57.81;96800.45;1658657;84;21163;-55
2021/04/25 02:15:38;;;;;;;6.10;3.25;;;;;;;4.29;57.57;96801.98;1660852;85;21181;-55
2021/04/25 02:18:06;;;;;;;6.47;3.87;;;;;;;4.32;57.41;96792.05;1675276;84;21160;-55
2021/04/25 02:20:33;;;;;;;5.22;3.30;;;;;;;4.33;57.51;96785.56;1655915;85;21175;-55
2021/04/25 02:23:01;;;;;;;5.85;3.65;;;;;;;4.34;57.66;96785.95;1667352;84;21141;-55
2021/04/25 02:25:29;;;;;;;5.05;3.50;;;;;;;4.39;57.73;96777.59;1653749;85;21101;-56
2021/04/25 02:27:57;;;;;;;6.73;3.57;;;;;;;4.47;57.27;96777.25;1659069;84;22134;-55
2021/04/25 02:30:29;;;;;;;6.40;3.67;;;;;;;4.52;57.26;96786.05;1661074;84;21122;-55
2021/04/25 02:32:58;;;;;;;4.87;3.33;;;;;;;4.56;57.13;96778.14;1664977;84;21137;-55
2021/04/25 02:35:27;;;;;;;5.10;3.50;;;;;;;4.59;57.15;96776.73;1663243;85;21576;-55
2021/04/25 02:37:55;;;;;;;4.83;3.62;;;;;;;4.64;56.99;96775.68;1666295;84;21096;-55
2021/04/25 02:40:25;;;;;;;5.33;3.53;;;;;;;4.66;56.97;96771.33;1658714;85;21171;-55
2021/04/25 02:42:53;;;;;;;7.97;3.30;;;;;;;4.69;56.75;96771.20;1651738;85;21224;-55
2021/04/25 02:45:22;;;;;;;5.42;3.05;;;;;;;4.71;56.54;96769.39;1664710;85;21187;-56
2021/04/25 02:48:02;;;;;;;4.65;3.22;;;;;;;4.74;56.48;96774.40;1660003;85;21664;-55
2021/04/25 02:50:33;;;;;;;7.53;3.50;;;;;;;4.75;56.45;96761.91;1660801;84;22025;-55
2021/04/25 02:53:01;;;;;;;4.30;3.22;;;;;;;4.76;56.28;96766.98;1663326;85;21219;-55
2021/04/25 02:55:29;;;;;;;4.97;3.60;;;;;;;4.83;56.27;96768.00;1654004;85;21164;-55
2021/04/25 02:57:57;;;;;;;5.95;3.62;;;;;;;4.86;56.20;96769.16;1659763;84;22237;-55
2021/04/25 03:00:27;;;;;;;4.33;3.40;;;;;;;4.90;56.23;96764.24;1635559;86;21147;-56
2021/04/25 03:02:57;;;;;;;7.33;3.50;;;;;;;4.97;56.27;96763.08;1657675;85;21102;-55
2021/04/25 03:05:27;;;;;;;7.92;3.85;;;;;;;5.07;55.58;96760.47;1662770;84;22409;-57
2021/04/25 03:07:55;;;;;;;6.65;3.70;;;;;;;5.11;55.32;96758.12;1654326;85;21249;-57
2021/04/25 03:10:24;;;;;;;5.70;3.22;;;;;;;5.10;55.15;96764.65;1661300;85;21168;-56
2021/04/25 03:12:52;;;;;;;5.33;3.30;;;;;;;5.08;55.34;96762.58;1633472;86;21200;-56
2021/04/25 03:15:21;;;;;;;4.55;3.37;;;;;;;5.11;55.37;96756.83;1660824;85;21665;-56
2021/04/25 03:17:49;;;;;;;6.83;3.58;;;;;;;5.18;55.14;96759.98;1661650;85;21308;-55
2021/04/25 03:20:19;;;;;;;5.22;3.42;;;;;;;5.25;54.71;96759.25;1660491;85;21096;-55
2021/04/25 03:22:46;;;;;;;5.65;3.40;;;;;;;5.29;54.63;96758.19;1653786;85;21112;-58
2021/04/25 03:25:16;;;;;;;5.80;3.58;;;;;;;5.31;54.37;96759.79;1668721;84;22085;-55
2021/04/25 03:27:44;;;;;;;6.00;3.17;;;;;;;5.31;54.46;96753.80;1667673;84;21145;-57
2021/04/25 03:30:13;;;;;;;5.80;3.58;;;;;;;5.33;54.55;96754.11;1643683;86;21432;-56
2021/04/25 03:32:41;;;;;;;4.53;3.20;;;;;;;5.41;54.39;96755.48;1659147;85;21224;-56
2021/04/25 03:35:12;;;;;;;14.25;8.18;;;;;;;5.46;54.19;96756.95;1661598;84;21525;-56
2021/04/25 03:37:40;;;;;;;34.10;20.02;;;;;;;5.47;54.21;96748.77;1653915;85;21196;-56
2021/04/25 03:40:11;;;;;;;9.98;5.92;;;;;;;5.50;54.25;96747.34;1638808;86;21148;-55
2021/04/25 03:42:38;;;;;;;5.80;3.90;;;;;;;5.59;54.00;96755.06;1660482;85;21448;-56
2021/04/25 03:45:13;;;;;;;4.70;3.60;;;;;;;5.65;53.71;96754.31;1659385;84;22459;-57
2021/04/25 03:47:38;;;;;;;8.15;3.83;;;;;;;5.71;53.44;96751.91;1627481;86;21744;-56
2021/04/25 03:50:08;;;;;;;6.28;3.62;;;;;;;5.79;53.33;96755.38;1636636;86;21193;-56
2021/04/25 03:52:36;;;;;;;6.22;3.90;;;;;;;5.86;53.29;96752.91;1630524;86;21125;-56
2021/04/25 03:55:05;;;;;;;5.20;3.37;;;;;;;5.89;52.98;96752.30;1628615;86;22295;-56
2021/04/25 03:57:33;;;;;;;6.53;3.45;;;;;;;5.96;52.90;96752.86;1627371;86;21157;-56
2021/04/25 04:00:01;;;;;;;5.22;3.42;;;;;;;6.06;52.86;96750.66;1634937;85;21200;-57
2021/04/25 04:02:31;;;;;;;6.78;3.30;;;;;;;6.14;52.21;96747.24;1638601;86;21600;-56
2021/04/25 04:05:00;;;;;;;5.75;3.45;;;;;;;6.17;52.00;96746.27;1607175;86;21200;-56
2021/04/25 04:07:29;;;;;;;7.03;3.70;;;;;;;6.19;52.15;96741.86;1630970;86;21985;-56
2021/04/25 04:09:59;;;;;;;5.55;3.60;;;;;;;6.22;52.03;96739.14;1626816;88;21111;-56
2021/04/25 04:12:27;;;;;;;9.15;3.70;;;;;;;6.28;51.95;96741.38;1621608;86;21228;-56
2021/04/25 04:14:55;;;;;;;6.20;3.50;;;;;;;6.33;51.27;96739.86;1623247;86;21092;-56
2021/04/25 04:17:23;;;;;;;5.65;3.62;;;;;;;6.31;51.16;96737.36;1639144;86;21112;-55
2021/04/25 04:19:50;;;;;;;6.10;3.65;;;;;;;6.29;51.22;96731.46;1640281;86;21225;-57
2021/04/25 04:22:19;;;;;;;6.05;4.10;;;;;;;6.32;51.13;96735.64;1637693;86;21203;-56
2021/04/25 04:24:46;;;;;;;6.17;4.03;;;;;;;6.38;50.96;96732.72;1638332;86;21507;-56
2021/04/25 04:27:14;;;;;;;5.13;3.60;;;;;;;6.45;51.23;96742.65;1635057;84;21580;-56
2021/04/25 04:29:43;;;;;;;5.03;3.55;;;;;;;6.53;50.59;96733.23;1638111;85;26748;-56
2021/04/25 04:32:11;;;;;;;4.87;3.58;;;;;;;6.55;50.65;96735.27;1636683;86;21238;-56
2021/04/25 04:34:39;;;;;;;4.47;3.70;;;;;;;6.62;50.19;96737.89;1628959;86;22379;-56
2021/04/25 04:37:06;;;;;;;5.70;3.80;;;;;;;6.65;50.47;96736.09;1636795;86;21134;-55
2021/04/25 04:39:35;;;;;;;6.12;3.85;;;;;;;6.69;50.38;96737.58;1630250;86;21103;-55
2021/04/25 04:42:05;;;;;;;10.93;6.42;;;;;;;6.75;50.57;96743.71;1634317;86;21169;-56
2021/04/25 04:44:32;;;;;;;6.67;4.30;;;;;;;6.90;50.15;96734.33;1634842;86;21455;-56
2021/04/25 04:47:00;;;;;;;7.30;4.12;;;;;;;7.02;49.85;96734.13;1662118;84;21568;-56
2021/04/25 04:49:27;;;;;;;5.83;3.67;;;;;;;7.10;49.67;96737.12;1668406;84;21208;-56
2021/04/25 04:51:55;;;;;;;7.28;3.67;;;;;;;7.19;49.49;96736.16;1656689;85;21090;-56
2021/04/25 04:54:23;;;;;;;6.80;3.70;;;;;;;7.33;49.18;96737.15;1662992;85;21559;-55
2021/04/25 04:56:51;;;;;;;6.83;3.80;;;;;;;7.49;49.05;96743.59;1660687;85;21215;-56
2021/04/25 04:59:19;;;;;;;10.88;3.62;;;;;;;7.65;48.87;96736.66;1667800;84;21887;-56
2021/04/25 05:01:46;;;;;;;5.10;3.42;;;;;;;7.86;48.59;96743.66;1655889;85;21168;-56
2021/04/25 05:04:15;;;;;;;5.03;3.45;;;;;;;8.08;48.17;96735.95;1667128;84;21129;-57
2021/04/25 05:06:42;;;;;;;64.58;37.48;;;;;;;8.33;47.38;96740.50;1659511;85;21153;-56
2021/04/25 05:09:11;;;;;;;22.50;13.05;;;;;;;8.53;47.03;96737.23;1639600;86;21297;-55
2021/04/25 05:11:39;;;;;;;7.30;5.15;;;;;;;8.70;47.48;96729.73;1662502;85;21128;-55
2021/04/25 05:14:07;;;;;;;9.60;4.42;;;;;;;8.86;46.47;96733.05;1666524;84;21127;-55
2021/04/25 05:16:35;;;;;;;6.12;3.77;;;;;;;9.06;45.53;96734.40;1663110;85;21180;-57
2021/04/25 05:19:03;;;;;;;4.65;3.75;;;;;;;9.20;45.39;96734.38;1663469;85;22437;-55
2021/04/25 05:21:31;;;;;;;4.97;3.47;;;;;;;9.39;45.35;96735.80;1664976;85;21853;-54
2021/04/25 05:23:58;;;;;;;6.03;3.37;;;;;;;9.59;44.86;96730.66;1653476;85;21104;-55
2021/04/25 05:26:27;;;;;;;8.98;4.40;;;;;;;9.85;44.32;96729.42;1665776;84;21137;-55
2021/04/25 05:28:56;;;;;;;7.58;4.28;;;;;;;10.06;43.25;96729.78;1653726;85;21169;-55
2021/04/25 05:31:24;;;;;;;11.03;3.85;;;;;;;10.19;42.75;96725.91;1660158;84;21144;-55
2021/04/25 05:33:53;;;;;;;6.40;4.10;;;;;;;10.32;42.61;96721.59;1651456;85;22299;-55
2021/04/25 05:36:21;;;;;;;5.83;3.90;;;;;;;10.46;41.68;96731.87;1635365;86;27521;-55
2021/04/25 05:38:50;;;;;;;7.58;3.95;;;;;;;10.48;41.81;96729.99;1646944;85;25384;-57
2021/04/25 05:41:18;;;;;;;5.67;4.20;;;;;;;10.53;41.23;96728.39;1628121;86;21244;-55
2021/04/25 05:43:46;;;;;;;7.40;3.75;;;;;;;10.52;41.01;96733.68;1653715;85;21182;-55
2021/04/25 05:46:15;;;;;;;5.83;3.42;;;;;;;10.49;41.13;96726.48;1659283;85;21220;-55
2021/04/25 05:48:44;;;;;;;6.50;3.47;;;;;;;10.48;40.66;96727.88;1650198;85;21147;-55
2021/04/25 05:51:12;;;;;;;7.92;3.55;;;;;;;10.40;40.85;96727.09;1656413;85;21591;-54
2021/04/25 05:53:40;;;;;;;7.37;3.60;;;;;;;10.39;41.05;96728.48;1657637;85;21656;-55
2021/04/25 05:56:08;;;;;;;5.92;3.50;;;;;;;10.40;41.03;96723.67;1627191;86;21195;-55
2021/04/25 05:58:36;;;;;;;7.90;4.03;;;;;;;10.38;40.58;96726.81;1653968;85;21441;-55
2021/04/25 06:01:04;;;;;;;5.37;3.42;;;;;;;10.31;40.63;96730.26;1661097;85;21183;-55
2021/04/25 06:03:31;;;;;;;4.33;3.12;;;;;;;10.18;40.67;96735.91;1653257;85;21222;-55
2021/04/25 06:05:59;;;;;;;11.60;3.42;;;;;;;10.09;39.88;96730.87;1650727;85;21080;-54
2021/04/25 06:08:28;;;;;;;4.53;3.20;;;;;;;9.94;40.62;96736.13;1643152;85;21084;-54
2021/04/25 06:10:56;;;;;;;6.45;3.02;;;;;;;9.91;40.83;96735.51;1650738;85;21385;-55
2021/04/25 06:13:23;;;;;;;7.30;3.30;;;;;;;9.92;40.44;96738.00;1652213;85;21157;-55
2021/04/25 06:15:51;;;;;;;4.05;3.15;;;;;;;9.86;39.77;96737.58;1652268;85;21158;-55
2021/04/25 06:18:19;;;;;;;4.62;3.17;;;;;;;9.76;40.38;96739.93;1652324;85;21114;-56
2021/04/25 06:20:46;;;;;;;4.97;3.20;;;;;;;9.71;40.43;96733.75;1652288;85;21211;-54
2021/04/25 06:23:14;;;;;;;4.85;3.50;;;;;;;9.67;40.25;96744.41;1652134;85;21252;-55
2021/04/25 06:25:42;;;;;;;7.07;3.80;;;;;;;9.65;40.34;96735.43;1653630;85;21131;-54
2021/04/25 06:28:10;;;;;;;9.23;3.55;;;;;;;9.65;40.57;96732.02;1651540;85;21105;-55
2021/04/25 06:30:38;;;;;;;7.53;3.90;;;;;;;9.65;40.58;96740.61;1654014;85;21077;-55
2021/04/25 06:33:06;;;;;;;8.08;3.70;;;;;;;9.63;40.70;96734.70;1654225;85;21942;-55
2021/04/25 06:35:34;;;;;;;5.37;3.33;;;;;;;9.64;40.69;96731.20;1646809;86;21520;-56
2021/04/25 06:38:02;;;;;;;6.20;3.50;;;;;;;9.62;40.27;96727.88;1653397;86;21116;-55
2021/04/25 06:40:31;;;;;;;6.10;3.30;;;;;;;9.56;40.20;96730.38;1654464;85;21214;-55
2021/04/25 06:43:00;;;;;;;7.17;3.70;;;;;;;9.59;40.41;96725.48;1653652;85;21125;-55
2021/04/25 06:45:28;;;;;;;6.55;3.20;;;;;;;9.56;40.60;96719.20;1652420;85;21149;-55
2021/04/25 06:47:56;;;;;;;5.62;3.40;;;;;;;9.55;40.01;96726.59;1647559;85;21529;-55
2021/04/25 06:50:23;;;;;;;5.00;3.33;;;;;;;9.49;40.23;96723.09;1651139;85;21191;-55
2021/04/25 06:52:51;;;;;;;4.53;3.30;;;;;;;9.46;40.26;96718.14;1652481;85;21187;-55
2021/04/25 06:55:21;;;;;;;4.47;3.25;;;;;;;9.43;40.22;96712.67;1651660;85;21168;-56
2021/04/25 06:57:50;;;;;;;6.72;3.20;;;;;;;9.47;40.10;96712.02;1652533;85;21504;-55
2021/04/25 07:00:19;;;;;;;8.80;3.30;;;;;;;9.56;40.22;96710.14;1652573;85;21526;-55
2021/04/25 07:02:49;;;;;;;5.80;3.62;;;;;;;9.66;40.29;96704.72;1659465;85;21175;-55
2021/04/25 07:05:17;;;;;;;7.97;3.65;;;;;;;9.81;40.23;96700.30;1653558;85;21101;-54
2021/04/25 07:07:45;;;;;;;6.65;3.55;;;;;;;10.03;40.01;96699.72;1664693;85;21180;-56
2021/04/25 07:10:12;;;;;;;6.35;3.30;;;;;;;10.34;39.75;96697.67;1653935;85;21176;-55
2021/04/25 07:12:40;;;;;;;5.25;3.50;;;;;;;10.63;38.64;96695.68;1653813;85;21263;-56
2021/04/25 07:15:09;;;;;;;6.47;3.25;;;;;;;10.88;37.75;96693.97;1665710;84;21540;-56
2021/04/25 07:17:37;;;;;;;6.92;3.50;;;;;;;11.05;37.78;96687.58;1653864;85;21102;-57
2021/04/25 07:20:08;;;;;;;8.13;3.70;;;;;;;11.21;37.23;96685.55;1660214;84;21235;-56
2021/04/25 07:22:36;;;;;;;6.65;3.60;;;;;;;11.33;36.89;96683.87;1653929;85;21072;-55
2021/04/25 07:25:08;;;;;;;6.67;3.55;;;;;;;11.44;36.84;96683.55;1665311;84;21612;-56
2021/04/25 07:27:36;;;;;;;5.85;3.17;;;;;;;11.65;36.51;96686.36;1665660;84;21192;-55
2021/04/25 07:30:07;;;;;;;6.70;3.15;;;;;;;11.76;35.84;96685.92;1663993;84;21172;-56
2021/04/25 07:32:36;;;;;;;6.15;3.20;;;;;;;11.82;35.59;96678.61;1663999;85;21104;-56
2021/04/25 07:35:06;;;;;;;4.15;3.12;;;;;;;11.94;35.92;96672.06;1653155;85;21609;-54
2021/04/25 07:37:35;;;;;;;7.25;3.40;;;;;;;12.10;35.01;96671.72;1653840;85;21380;-55
2021/04/25 07:40:07;;;;;;;5.50;3.40;;;;;;;12.10;35.23;96677.41;1663209;84;21198;-55
2021/04/25 07:42:35;;;;;;;7.17;3.58;;;;;;;12.06;35.14;96675.99;1654162;85;21151;-55
2021/04/25 07:45:06;;;;;;;6.40;3.17;;;;;;;11.93;35.48;96672.17;1653517;85;21620;-55
2021/04/25 07:47:34;;;;;;;5.15;3.10;;;;;;;11.88;35.54;96660.78;1661270;85;21135;-55
2021/04/25 07:50:02;;;;;;;8.40;3.60;;;;;;;11.81;35.14;96668.69;1653156;85;21204;-55
2021/04/25 07:52:31;;;;;;;6.25;3.30;;;;;;;11.79;35.25;96657.55;1664460;84;21218;-56
2021/04/25 07:54:59;;;;;;;7.87;3.17;;;;;;;11.82;35.16;96661.71;1653783;85;21167;-55
2021/04/25 07:57:27;;;;;;;7.75;4.08;;;;;;;11.89;34.84;96656.41;1665616;85;21102;-55
2021/04/25 07:59:56;;;;;;;7.37;4.03;;;;;;;12.02;34.96;96657.64;1654041;85;21259;-55
2021/04/25 08:02:24;;;;;;;3.55;2.87;;;;;;;12.20;34.86;96658.03;1649215;86;22290;-55
2021/04/25 08:04:51;;;;;;;4.70;3.12;;;;;;;12.58;34.67;96648.59;1663482;84;21259;-55
2021/04/25 08:07:19;;;;;;;5.72;3.33;;;;;;;13.20;33.96;96646.34;1653624;85;21226;-55
2021/04/25 08:09:47;;;;;;;6.73;3.70;;;;;;;13.66;32.18;96637.42;1656842;85;21110;-56
2021/04/25 08:12:15;;;;;;;6.00;3.45;;;;;;;14.02;31.51;96639.23;1656881;85;21806;-55
2021/04/25 08:14:45;;;;;;;5.10;3.02;;;;;;;14.66;31.20;96634.75;1656670;85;21545;-54
2021/04/25 08:17:12;;;;;;;4.45;2.80;;;;;;;15.61;30.17;96632.06;1656651;85;21674;-55
2021/04/25 08:19:40;;;;;;;4.30;3.00;;;;;;;16.19;27.93;96616.77;1653604;85;21215;-56
2021/04/25 08:22:09;;;;;;;10.30;3.90;;;;;;;16.40;28.22;96604.78;1665298;84;21164;-56
2021/04/25 08:24:37;;;;;;;6.50;3.35;;;;;;;16.45;27.77;96602.55;1653615;85;21602;-55
2021/04/25 08:27:06;;;;;;;7.30;3.27;;;;;;;16.47;27.73;96605.84;1666274;84;21217;-56
2021/04/25 08:29:34;;;;;;;5.40;3.20;;;;;;;16.91;27.46;96590.83;1653902;85;21163;-57
2021/04/25 08:32:02;;;;;;;6.17;3.27;;;;;;;17.52;25.71;96594.50;1663374;84;22247;-55
2021/04/25 08:34:30;;;;;;;5.33;2.97;;;;;;;17.73;25.29;96586.31;1654045;85;21207;-56
2021/04/25 08:36:59;;;;;;;;;;;;;;;17.48;24.72;96573.47;1656153;85;21161;-56
2021/04/25 08:39:26;;;;;;;4.47;2.98;;;;;;;17.28;24.80;96585.93;1652834;85;21211;-55
2021/04/25 08:41:55;;;;;;;4.90;3.02;;;;;;;16.98;25.01;96566.16;1653508;85;21239;-55
2021/04/25 08:44:23;;;;;;;5.65;3.02;;;;;;;16.87;25.16;96573.73;1653948;85;21192;-55
2021/04/25 08:46:53;;;;;;;4.80;3.02;;;;;;;16.61;25.61;96565.27;1650987;85;21559;-57
2021/04/25 08:49:30;;;;;;;3.95;2.85;;;;;;;16.51;25.96;96571.02;1634969;86;21197;-55
2021/04/25 08:51:58;;;;;;;3.52;2.70;;;;;;;16.21;26.00;96572.13;1620397;86;22766;-57
2021/04/25 08:54:26;;;;;;;6.45;3.20;;;;;;;15.85;26.34;96570.65;1627396;86;21104;-55
2021/04/25 08:56:55;;;;;;;5.55;3.22;;;;;;;15.80;26.50;96556.19;1657980;85;21587;-56
2021/04/25 08:59:23;;;;;;;5.30;3.45;;;;;;;15.90;26.09;96552.23;1666767;85;21159;-57
2021/04/25 09:01:50;;;;;;;5.53;3.02;;;;;;;16.13;26.31;96556.64;1661548;85;21595;-55
2021/04/25 09:04:18;;;;;;;10.48;3.27;;;;;;;16.31;26.46;96556.70;1652317;85;23555;-54
2021/04/25 09:07:09;;;;;;;4.42;3.00;;;;;;;16.37;25.99;96561.36;1666106;85;21987;-55
2021/04/25 09:09:56;;;;;;;5.12;3.15;;;;;;;16.21;25.11;96560.34;1667291;85;21236;-57
2021/04/25 09:12:34;;;;;;;6.03;3.50;;;;;;;15.99;24.95;96556.63;1666233;85;21171;-56
2021/04/25 09:15:16;;;;;;;5.78;3.40;;;;;;;15.85;25.50;96555.77;1628614;86;21159;-55
2021/04/25 09:17:58;;;;;;;5.25;3.20;;;;;;;15.96;25.18;96558.71;1647769;86;21306;-55
2021/04/25 09:20:47;;;;;;;7.62;3.55;;;;;;;16.18;25.25;96557.05;1635193;86;21248;-57
2021/04/25 09:23:26;;;;;;;6.95;3.25;;;;;;;16.36;25.34;96564.13;1639081;85;21096;-56
2021/04/25 09:26:01;;;;;;;;;;;;;;;16.56;25.19;96560.92;1668971;85;21167;-56
2021/04/25 09:28:28;;;;;;;6.10;3.00;;;;;;;16.62;25.81;96569.51;1667607;85;20304;-56
2021/04/25 09:31:03;;;;;;;5.67;3.40;;;;;;;16.56;26.34;96562.23;1669475;85;21223;-56
2021/04/25 09:33:55;;;;;;;5.37;3.47;;;;;;;16.61;26.76;96560.48;1640476;86;21195;-55
2021/04/25 09:36:27;;;;;;;5.42;3.60;;;;;;;16.44;27.27;96560.30;1630812;86;21168;-57
2021/04/25 09:39:14;;;;;;;5.97;3.58;;;;;;;16.19;27.81;96560.48;1640293;86;21108;-56
2021/04/25 09:41:42;;;;;;;7.62;3.40;;;;;;;15.93;28.61;96578.13;1638118;86;21166;-55
2021/04/25 09:44:34;;;;;;;5.87;3.60;;;;;;;15.62;29.37;96586.16;1662838;85;21382;-56
2021/04/25 09:47:05;;;;;;;174.85;122.70;;;;;;;15.32;30.13;96598.08;1651739;85;21171;-55
2021/04/25 09:49:49;;;;;;;33.25;18.00;;;;;;;15.07;30.84;96589.81;1665407;84;21147;-56
2021/04/25 09:52:34;;;;;;;7.62;4.12;;;;;;;14.93;31.23;96587.09;1662904;85;21109;-58
2021/04/25 09:55:21;;;;;;;5.22;3.70;;;;;;;15.11;31.39;96583.34;1671421;84;21556;-55
2021/04/25 09:57:50;;;;;;;8.43;4.45;;;;;;;15.47;31.26;96582.30;1638001;86;21602;-55
2021/04/25 10:00:19;;;;;;;8.40;4.45;;;;;;;15.98;31.52;96574.59;1665149;84;21231;-55
2021/04/25 10:03:00;;;;;;;5.22;3.90;;;;;;;16.29;31.53;96569.12;1667616;84;21604;-55
2021/04/25 10:05:29;;;;;;;6.22;4.42;;;;;;;16.56;30.71;96572.70;1659997;85;21541;-55
2021/04/25 10:07:58;;;;;;;;;;;;;;;16.81;30.19;96566.43;1661687;84;21084;-55
2021/04/25 10:10:27;;;;;;;5.10;4.00;;;;;;;17.02;30.16;96556.55;1664907;84;21220;-55
2021/04/25 10:12:56;;;;;;;8.78;4.40;;;;;;;17.36;29.93;96547.98;1669668;84;21104;-56
2021/04/25 10:15:24;;;;;;;7.25;3.95;;;;;;;17.72;29.65;96544.48;1670779;84;21218;-56
2021/04/25 10:17:54;;;;;;;5.22;4.00;;;;;;;18.00;28.62;96535.97;1667764;84;21549;-55
2021/04/25 10:20:23;;;;;;;5.40;4.08;;;;;;;18.21;28.38;96534.28;1668089;84;21160;-55
2021/04/25 10:22:51;;;;;;;5.62;3.62;;;;;;;18.40;27.25;96526.63;1637512;86;21385;-55
2021/04/25 10:25:28;;;;;;;5.67;3.58;;;;;;;18.44;26.78;96527.13;1656819;85;21680;-57
2021/04/25 10:28:18;;;;;;;7.45;3.55;;;;;;;18.64;26.53;96526.39;1877953;74;22749;-56
2021/04/25 10:30:46;;;;;;;8.23;3.90;;;;;;;18.73;26.20;96526.72;1847284;75;21129;-55
2021/04/25 10:33:14;;;;;;;9.03;4.13;;;;;;;18.89;26.30;96523.34;1844820;75;21434;-55
2021/04/25 10:35:55;;;;;;;7.87;3.80;;;;;;;19.13;26.93;96526.00;1838912;75;21631;-55
2021/04/25 10:38:37;;;;;;;4.97;3.65;;;;;;;19.30;25.64;96516.80;1844750;76;21574;-55
2021/04/25 10:41:25;;;;;;;6.72;3.70;;;;;;;19.36;25.21;96517.46;1842369;75;21153;-55
2021/04/25 10:43:59;;;;;;;7.55;3.90;;;;;;;19.35;25.26;96514.99;1847599;75;21058;-55
2021/04/25 10:46:56;;;;;;;6.58;4.00;;;;;;;19.30;25.50;96522.06;1843986;75;21360;-55
2021/04/25 10:49:40;;;;;;;8.05;3.70;;;;;;;19.35;25.67;96523.70;1854252;75;21574;-56
2021/04/25 10:52:50;;;;;;;5.70;3.95;;;;;;;19.46;25.24;96521.24;1806900;77;21551;-56
2021/04/25 10:55:25;;;;;;;4.72;3.80;;;;;;;19.44;24.99;96522.72;1847242;77;21175;-56
2021/04/25 10:58:01;;;;;;;5.72;3.50;;;;;;;19.27;24.85;96527.14;1850851;77;21572;-56
2021/04/25 11:00:42;;;;;;;6.75;4.42;;;;;;;19.03;25.08;96531.07;1803250;78;22352;-56
2021/04/25 11:03:23;;;;;;;8.33;3.75;;;;;;;18.73;25.54;96535.92;1804730;78;21110;-56
2021/04/25 11:05:52;;;;;;;4.92;3.72;;;;;;;18.38;25.58;96535.97;1803529;78;21148;-55
2021/04/25 11:08:36;;;;;;;7.17;4.65;;;;;;;17.90;25.86;96539.20;1777415;79;21568;-55
2021/04/25 11:11:13;;;;;;;6.58;3.77;;;;;;;17.37;26.84;96537.83;1793170;78;21050;-55
2021/04/25 11:13:46;;;;;;;4.55;3.17;;;;;;;17.31;27.09;96528.44;1785426;79;21926;-55
2021/04/25 11:16:20;;;;;;;4.87;3.27;;;;;;;17.51;27.03;96525.14;1817131;78;21466;-55
2021/04/25 11:19:09;;;;;;;7.25;3.70;;;;;;;17.66;27.06;96526.22;1773165;80;21112;-54
2021/04/25 11:21:54;;;;;;;4.40;3.50;;;;;;;17.63;26.71;96531.30;1778131;79;21085;-56
2021/04/25 11:24:27;;;;;;;9.05;4.80;;;;;;;17.59;27.00;96529.95;1802841;78;21125;-55
2021/04/25 11:26:59;;;;;;;7.62;4.72;;;;;;;17.49;28.48;96522.67;1764895;80;21365;-57
2021/04/25 11:29:51;;;;;;;7.08;4.83;;;;;;;17.35;29.25;96532.39;1798556;78;21085;-56
2021/04/25 11:32:27;;;;;;;10.03;4.72;;;;;;;17.16;29.87;96530.78;1800995;79;21480;-56
2021/04/25 11:35:04;;;;;;;9.00;4.45;;;;;;;16.96;30.05;96534.86;1802089;78;21050;-55
2021/04/25 11:37:32;;;;;;;5.90;4.10;;;;;;;16.78;30.50;96527.45;1792255;79;21234;-55
2021/04/25 11:40:03;;;;;;;8.35;4.45;;;;;;;16.51;30.99;96534.34;1807788;78;21596;-55
2021/04/25 11:42:46;;;;;;;5.45;4.12;;;;;;;16.27;31.01;96536.22;1795094;78;21125;-56
2021/04/25 11:45:30;;;;;;;7.40;4.75;;;;;;;15.98;31.75;96537.14;1789593;78;21145;-56
2021/04/25 11:48:01;;;;;;;7.03;4.50;;;;;;;15.74;32.18;96538.89;1776923;78;21179;-55
2021/04/25 11:50:34;;;;;;;5.87;4.35;;;;;;;15.59;32.38;96542.44;1772290;80;21124;-55
2021/04/25 11:53:01;;;;;;;8.35;4.20;;;;;;;15.53;32.74;96540.41;1782004;78;22132;-56
2021/04/25 11:55:30;;;;;;;9.23;4.58;;;;;;;15.48;32.83;96543.44;1763213;78;21620;-56